createdAt,value
2018-10-12T00:00:04.506Z,7.9
2018-10-12T00:01:06.047Z,7.9
2018-10-12T00:02:07.428Z,7.9
2018-10-12T00:03:08.812Z,7.9
2018-10-12T00:04:10.354Z,7.9
2018-10-12T00:05:11.741Z,7.9
2018-10-12T00:06:13.169Z,7.9
2018-10-12T00:07:14.541Z,7.9
2018-10-12T00:08:15.746Z,7.9
2018-10-12T00:09:17.305Z,7.9
2018-10-12T00:10:18.857Z,7.9
2018-10-12T00:11:20.409Z,7.9
2018-10-12T00:12:21.967Z,7.9
2018-10-12T00:13:23.542Z,7.9
2018-10-12T00:14:25.100Z,7.9
2018-10-12T00:15:26.641Z,7.9
2018-10-12T00:16:28.019Z,7.9
2018-10-12T00:17:29.407Z,7.9
2018-10-12T00:18:30.969Z,7.9
2018-10-12T00:19:32.511Z,7.9
2018-10-12T00:20:34.057Z,7.9
2018-10-12T00:21:35.419Z,7.9
2018-10-12T00:22:36.786Z,7.9
2018-10-12T00:23:38.346Z,7.9
2018-10-12T00:24:39.733Z,7.9
2018-10-12T00:25:41.329Z,7.9
2018-10-12T00:26:42.885Z,7.9
2018-10-12T00:27:44.658Z,7.9
2018-10-12T00:28:45.879Z,7.9
2018-10-12T00:29:47.427Z,7.9
2018-10-12T00:30:48.827Z,7.9
2018-10-12T00:31:50.398Z,7.9
2018-10-12T00:32:51.771Z,7.9
2018-10-12T00:33:53.298Z,7.9
2018-10-12T00:34:54.691Z,7.9
2018-10-12T00:35:56.235Z,7.9
2018-10-12T00:36:57.609Z,7.8
2018-10-12T00:37:59.160Z,7.8
2018-10-12T00:39:00.702Z,7.9
2018-10-12T00:40:02.098Z,7.8
2018-10-12T00:41:03.648Z,7.8
2018-10-12T00:42:05.029Z,7.8
2018-10-12T00:43:06.568Z,7.8
2018-10-12T00:44:07.989Z,7.8
2018-10-12T00:45:09.533Z,7.8
2018-10-12T00:46:11.073Z,7.8
2018-10-12T00:47:12.611Z,7.8
2018-10-12T00:48:14.168Z,7.9
2018-10-12T00:49:15.729Z,7.8
2018-10-12T00:50:17.124Z,7.8
2018-10-12T00:51:18.707Z,7.8
2018-10-12T00:52:20.069Z,7.8
2018-10-12T00:53:21.611Z,7.8
2018-10-12T00:54:23.159Z,7.8
2018-10-12T00:55:24.369Z,7.9
2018-10-12T00:56:25.741Z,7.9
2018-10-12T00:57:27.289Z,7.9
2018-10-12T00:58:28.836Z,7.8
2018-10-12T00:59:30.264Z,7.8
2018-10-12T01:00:31.648Z,7.8
2018-10-12T01:01:33.220Z,7.9
2018-10-12T01:02:34.829Z,7.9
2018-10-12T01:03:36.373Z,7.9
2018-10-12T01:04:37.919Z,7.8
2018-10-12T01:05:39.463Z,7.9
2018-10-12T01:06:41.566Z,7.9
2018-10-12T01:07:43.208Z,7.9
2018-10-12T01:08:44.751Z,7.9
2018-10-12T01:09:46.152Z,7.9
2018-10-12T01:10:47.702Z,7.9
2018-10-12T01:11:49.239Z,7.9
2018-10-12T01:12:50.636Z,7.9
2018-10-12T01:13:52.177Z,7.9
2018-10-12T01:14:53.719Z,7.9
2018-10-12T01:15:55.164Z,7.9
2018-10-12T01:16:56.707Z,7.9
2018-10-12T01:17:57.921Z,7.8
2018-10-12T01:18:59.504Z,7.8
2018-10-12T01:20:00.879Z,7.7
2018-10-12T01:21:02.471Z,7.6
2018-10-12T01:22:03.851Z,7.5
2018-10-12T01:23:05.395Z,7.4
2018-10-12T01:24:06.930Z,7.2
2018-10-12T01:25:08.489Z,7.2
2018-10-12T01:26:10.028Z,7.2
2018-10-12T01:27:11.419Z,7.2
2018-10-12T01:28:12.480Z,7.1
2018-10-12T01:29:14.137Z,7.1
2018-10-12T01:30:15.677Z,7.1
2018-10-12T01:31:17.091Z,7.1
2018-10-12T01:32:18.643Z,7.1
2018-10-12T01:33:20.039Z,7.1
2018-10-12T01:34:21.089Z,7.1
2018-10-12T01:35:22.636Z,7.1
2018-10-12T01:36:24.172Z,7.1
2018-10-12T01:37:25.704Z,7.1
2018-10-12T01:38:27.289Z,7.1
2018-10-12T01:39:28.964Z,7.1
2018-10-12T01:40:30.518Z,7.1
2018-10-12T01:41:31.906Z,7.1
2018-10-12T01:42:33.306Z,7.2
2018-10-12T01:43:34.854Z,7.1
2018-10-12T01:44:36.409Z,7.1
2018-10-12T01:45:37.948Z,7.2
2018-10-12T01:46:39.502Z,7.2
2018-10-12T01:47:41.037Z,7.2
2018-10-12T01:48:42.597Z,7.2
2018-10-12T01:49:43.969Z,7.2
2018-10-12T01:50:45.501Z,7.2
2018-10-12T01:51:47.064Z,7.2
2018-10-12T01:52:48.617Z,7.2
2018-10-12T01:53:50.162Z,7.2
2018-10-12T01:54:51.698Z,7.2
2018-10-12T01:55:53.076Z,7.2
2018-10-12T01:56:54.612Z,7.2
2018-10-12T01:57:56.161Z,7.2
2018-10-12T01:58:57.713Z,7.2
2018-10-12T01:59:59.269Z,7.2
2018-10-12T02:01:00.819Z,7.2
2018-10-12T02:02:02.188Z,7.2
2018-10-12T02:03:03.728Z,7.2
2018-10-12T02:04:05.281Z,7.2
2018-10-12T02:05:06.821Z,7.2
2018-10-12T02:06:08.205Z,7.2
2018-10-12T02:07:09.809Z,7.2
2018-10-12T02:08:11.378Z,7.2
2018-10-12T02:09:12.751Z,7.2
2018-10-12T02:10:14.323Z,7.2
2018-10-12T02:11:15.702Z,7.2
2018-10-12T02:12:17.078Z,7.3
2018-10-12T02:13:18.629Z,7.3
2018-10-12T02:14:20.192Z,7.3
2018-10-12T02:15:21.838Z,7.3
2018-10-12T02:16:23.397Z,7.3
2018-10-12T02:17:24.781Z,7.3
2018-10-12T02:18:26.352Z,7.3
2018-10-12T02:19:27.903Z,7.3
2018-10-12T02:20:29.456Z,7.3
2018-10-12T02:21:31.006Z,7.3
2018-10-12T02:22:32.538Z,7.3
2018-10-12T02:23:34.119Z,7.3
2018-10-12T02:24:35.530Z,7.3
2018-10-12T02:25:37.070Z,7.3
2018-10-12T02:26:38.625Z,7.3
2018-10-12T02:27:40.181Z,7.4
2018-10-12T02:28:41.724Z,7.4
2018-10-12T02:29:43.135Z,7.4
2018-10-12T02:30:44.723Z,7.4
2018-10-12T02:31:46.255Z,7.4
2018-10-12T02:32:47.489Z,7.4
2018-10-12T02:33:48.858Z,7.4
2018-10-12T02:34:50.406Z,7.4
2018-10-12T02:35:52.017Z,7.4
2018-10-12T02:36:53.361Z,7.4
2018-10-12T02:37:54.916Z,7.4
2018-10-12T02:38:56.295Z,7.4
2018-10-12T02:39:57.869Z,7.4
2018-10-12T02:40:59.086Z,7.4
2018-10-12T02:42:00.651Z,7.4
2018-10-12T02:43:02.216Z,7.5
2018-10-12T02:44:03.768Z,7.5
2018-10-12T02:45:05.349Z,7.5
2018-10-12T02:46:06.911Z,7.5
2018-10-12T02:47:08.290Z,7.6
2018-10-12T02:48:09.838Z,7.6
2018-10-12T02:49:11.387Z,7.6
2018-10-12T02:50:12.912Z,7.7
2018-10-12T02:51:14.456Z,7.7
2018-10-12T02:52:15.828Z,7.7
2018-10-12T02:53:17.390Z,7.8
2018-10-12T02:54:18.935Z,7.8
2018-10-12T02:55:20.474Z,7.8
2018-10-12T02:56:22.024Z,7.8
2018-10-12T02:57:23.571Z,7.8
2018-10-12T02:58:24.928Z,7.8
2018-10-12T02:59:26.159Z,7.8
2018-10-12T03:00:27.709Z,7.8
2018-10-12T03:01:29.238Z,7.8
2018-10-12T03:02:30.780Z,7.8
2018-10-12T03:03:32.180Z,7.9
2018-10-12T03:04:33.742Z,7.9
2018-10-12T03:05:35.319Z,7.9
2018-10-12T03:06:36.897Z,7.9
2018-10-12T03:07:38.125Z,7.9
2018-10-12T03:08:39.512Z,7.9
2018-10-12T03:09:41.094Z,7.9
2018-10-12T03:10:42.630Z,7.9
2018-10-12T03:11:44.016Z,7.9
2018-10-12T03:12:45.591Z,7.9
2018-10-12T03:13:47.139Z,7.9
2018-10-12T03:14:48.695Z,7.9
2018-10-12T03:15:50.239Z,7.9
2018-10-12T03:16:51.637Z,7.9
2018-10-12T03:17:53.217Z,7.9
2018-10-12T03:18:54.612Z,7.8
2018-10-12T03:19:56.160Z,7.8
2018-10-12T03:20:57.708Z,7.2
2018-10-12T03:21:59.276Z,7.2
2018-10-12T03:23:00.835Z,7.2
2018-10-12T03:24:02.378Z,7.2
2018-10-12T03:25:03.623Z,7.2
2018-10-12T03:26:05.178Z,7.2
2018-10-12T03:27:06.788Z,7.2
2018-10-12T03:28:08.160Z,7.2
2018-10-12T03:29:09.695Z,7.2
2018-10-12T03:30:11.334Z,7.2
2018-10-12T03:31:13.518Z,7.2
2018-10-12T03:32:15.071Z,7.2
2018-10-12T03:33:16.304Z,7.2
2018-10-12T03:34:17.859Z,7.2
2018-10-12T03:35:19.259Z,7.2
2018-10-12T03:36:20.861Z,7.2
2018-10-12T03:37:23.274Z,7.2
2018-10-12T03:38:24.719Z,7.2
2018-10-12T03:39:26.306Z,7.2
2018-10-12T03:40:27.870Z,7.2
2018-10-12T03:41:29.428Z,7.2
2018-10-12T03:42:30.987Z,7.2
2018-10-12T03:43:32.546Z,7.2
2018-10-12T03:44:33.935Z,7.2
2018-10-12T03:45:35.328Z,7.2
2018-10-12T03:46:36.707Z,7.2
2018-10-12T03:47:38.300Z,7.2
2018-10-12T03:48:39.905Z,7.2
2018-10-12T03:49:41.315Z,7.2
2018-10-12T03:50:42.889Z,7.3
2018-10-12T03:51:44.686Z,7.3
2018-10-12T03:52:46.243Z,7.3
2018-10-12T03:53:48.655Z,7.4
2018-10-12T03:54:50.230Z,7.4
2018-10-12T03:55:51.826Z,7.5
2018-10-12T03:56:53.292Z,7.5
2018-10-12T03:57:54.877Z,7.6
2018-10-12T03:58:56.456Z,7.6
2018-10-12T03:59:58.019Z,7.7
2018-10-12T04:00:59.613Z,7.8
2018-10-12T04:02:01.027Z,7.8
2018-10-12T04:03:02.605Z,7.9
2018-10-12T04:04:04.209Z,7.9
2018-10-12T04:05:05.127Z,7.9
2018-10-12T04:06:06.523Z,7.9
2018-10-12T04:07:07.972Z,7.9
2018-10-12T04:08:09.504Z,7.9
2018-10-12T04:09:11.068Z,7.9
2018-10-12T04:10:12.630Z,7.9
2018-10-12T04:11:13.854Z,7.9
2018-10-12T04:12:15.400Z,7.9
2018-10-12T04:13:16.971Z,7.8
2018-10-12T04:14:18.528Z,7.9
2018-10-12T04:15:20.062Z,7.9
2018-10-12T04:16:21.612Z,7.9
2018-10-12T04:17:23.017Z,7.9
2018-10-12T04:18:24.572Z,7.9
2018-10-12T04:19:26.117Z,7.9
2018-10-12T04:20:27.666Z,7.9
2018-10-12T04:21:29.058Z,7.9
2018-10-12T04:22:30.629Z,7.9
2018-10-12T04:23:32.199Z,7.9
2018-10-12T04:24:33.594Z,7.9
2018-10-12T04:25:35.137Z,7.9
2018-10-12T04:26:36.529Z,7.9
2018-10-12T04:27:37.922Z,7.9
2018-10-12T04:28:39.487Z,7.9
2018-10-12T04:29:41.068Z,7.9
2018-10-12T04:30:42.467Z,7.9
2018-10-12T04:31:44.018Z,7.9
2018-10-12T04:32:45.411Z,7.9
2018-10-12T04:33:46.972Z,7.9
2018-10-12T04:34:48.556Z,7.9
2018-10-12T04:35:50.124Z,7.9
2018-10-12T04:36:51.689Z,7.9
2018-10-12T04:37:53.240Z,7.9
2018-10-12T04:38:54.776Z,7.9
2018-10-12T04:39:56.348Z,7.9
2018-10-12T04:40:57.745Z,7.9
2018-10-12T04:41:59.299Z,7.9
2018-10-12T04:43:00.846Z,7.9
2018-10-12T04:44:02.408Z,7.9
2018-10-12T04:45:03.971Z,7.5
2018-10-12T04:46:05.540Z,7.6
2018-10-12T04:47:07.481Z,7.7
2018-10-12T04:48:08.890Z,7.9
2018-10-12T04:49:10.440Z,7.9
2018-10-12T04:50:11.996Z,7.9
2018-10-12T04:51:13.433Z,7.9
2018-10-12T04:52:14.823Z,7.9
2018-10-12T04:53:16.216Z,7.9
2018-10-12T04:54:17.758Z,7.9
2018-10-12T04:55:19.344Z,7.9
2018-10-12T04:56:20.758Z,7.9
2018-10-12T04:57:22.411Z,7.9
2018-10-12T04:58:23.998Z,7.9
2018-10-12T04:59:25.571Z,7.9
2018-10-12T05:00:27.110Z,7.9
2018-10-12T05:01:28.331Z,7.9
2018-10-12T05:02:29.883Z,7.9
2018-10-12T05:03:31.301Z,7.9
2018-10-12T05:04:32.877Z,7.9
2018-10-12T05:05:34.409Z,7.8
2018-10-12T05:06:35.984Z,7.8
2018-10-12T05:07:37.922Z,7.8
2018-10-12T05:08:39.236Z,7.7
2018-10-12T05:09:40.599Z,7.6
2018-10-12T05:10:42.151Z,7.4
2018-10-12T05:11:43.748Z,7.3
2018-10-12T05:12:45.324Z,7.2
2018-10-12T05:13:46.898Z,7.2
2018-10-12T05:14:48.119Z,7.2
2018-10-12T05:15:49.522Z,7.2
2018-10-12T05:16:51.065Z,7.2
2018-10-12T05:17:52.635Z,7.2
2018-10-12T05:18:54.216Z,7.1
2018-10-12T05:19:55.615Z,7.1
2018-10-12T05:20:57.220Z,7.2
2018-10-12T05:21:59.179Z,7.2
2018-10-12T05:23:00.567Z,7.2
2018-10-12T05:24:01.958Z,7.2
2018-10-12T05:25:03.521Z,7.2
2018-10-12T05:26:05.088Z,7.2
2018-10-12T05:27:06.640Z,7.2
2018-10-12T05:28:08.048Z,7.2
2018-10-12T05:29:09.608Z,7.2
2018-10-12T05:30:11.662Z,7.2
2018-10-12T05:31:13.092Z,7.2
2018-10-12T05:32:14.649Z,7.2
2018-10-12T05:33:16.197Z,7.2
2018-10-12T05:34:17.730Z,7.2
2018-10-12T05:35:19.291Z,7.2
2018-10-12T05:36:20.847Z,7.2
2018-10-12T05:37:22.212Z,7.2
2018-10-12T05:38:23.765Z,7.2
2018-10-12T05:39:25.006Z,7.2
2018-10-12T05:40:26.381Z,7.2
2018-10-12T05:41:27.937Z,7.2
2018-10-12T05:42:29.487Z,7.2
2018-10-12T05:43:32.081Z,7.2
2018-10-12T05:44:33.890Z,7.2
2018-10-12T05:45:35.419Z,7.2
2018-10-12T05:46:36.812Z,7.2
2018-10-12T05:47:38.041Z,7.2
2018-10-12T05:48:39.949Z,7.3
2018-10-12T05:49:41.500Z,7.3
2018-10-12T05:50:43.077Z,7.3
2018-10-12T05:51:44.658Z,7.3
2018-10-12T05:52:46.027Z,7.3
2018-10-12T05:53:47.411Z,7.4
2018-10-12T05:54:48.800Z,7.4
2018-10-12T05:55:51.116Z,7.4
2018-10-12T05:56:52.717Z,7.5
2018-10-12T05:57:54.276Z,7.5
2018-10-12T05:58:55.828Z,7.5
2018-10-12T05:59:57.380Z,7.6
2018-10-12T06:00:58.972Z,7.6
2018-10-12T06:02:00.546Z,7.6
2018-10-12T06:03:02.107Z,7.6
2018-10-12T06:04:03.494Z,7.7
2018-10-12T06:05:05.058Z,7.7
2018-10-12T06:06:06.520Z,7.7
2018-10-12T06:07:08.105Z,7.7
2018-10-12T06:08:09.669Z,7.8
2018-10-12T06:09:11.065Z,7.8
2018-10-12T06:10:13.161Z,7.8
2018-10-12T06:11:14.929Z,7.8
2018-10-12T06:12:16.158Z,7.8
2018-10-12T06:13:17.723Z,7.8
2018-10-12T06:14:19.115Z,7.8
2018-10-12T06:15:20.876Z,7.8
2018-10-12T06:16:22.423Z,7.8
2018-10-12T06:17:23.979Z,7.8
2018-10-12T06:18:25.385Z,7.8
2018-10-12T06:19:26.974Z,7.8
2018-10-12T06:20:28.510Z,7.8
2018-10-12T06:21:30.277Z,7.8
2018-10-12T06:22:31.796Z,7.8
2018-10-12T06:23:33.230Z,7.8
2018-10-12T06:24:34.472Z,7.8
2018-10-12T06:25:36.021Z,7.8
2018-10-12T06:26:37.872Z,7.9
2018-10-12T06:27:39.447Z,7.9
2018-10-12T06:28:41.023Z,7.8
2018-10-12T06:29:42.587Z,7.9
2018-10-12T06:30:44.149Z,7.8
2018-10-12T06:31:45.686Z,7.8
2018-10-12T06:32:47.457Z,7.8
2018-10-12T06:33:48.865Z,7.8
2018-10-12T06:34:50.429Z,7.8
2018-10-12T06:35:51.975Z,7.8
2018-10-12T06:36:53.523Z,7.8
2018-10-12T06:37:54.915Z,7.8
2018-10-12T06:38:56.453Z,7.8
2018-10-12T06:39:58.001Z,7.8
2018-10-12T06:41:00.391Z,7.8
2018-10-12T06:42:01.300Z,7.8
2018-10-12T06:43:02.908Z,7.8
2018-10-12T06:44:04.486Z,7.7
2018-10-12T06:45:05.941Z,7.7
2018-10-12T06:46:07.325Z,7.8
2018-10-12T06:47:08.921Z,7.8
2018-10-12T06:48:10.478Z,7.8
2018-10-12T06:49:11.891Z,7.8
2018-10-12T06:50:13.452Z,7.9
2018-10-12T06:51:15.025Z,7.9
2018-10-12T06:52:16.242Z,7.9
2018-10-12T06:53:17.802Z,7.8
2018-10-12T06:54:19.381Z,7.8
2018-10-12T06:55:20.603Z,7.7
2018-10-12T06:56:22.153Z,7.7
2018-10-12T06:57:23.713Z,7.5
2018-10-12T06:58:25.483Z,7.4
2018-10-12T06:59:26.882Z,7.2
2018-10-12T07:00:28.441Z,7.2
2018-10-12T07:01:29.877Z,7.2
2018-10-12T07:02:31.279Z,7.2
2018-10-12T07:03:32.675Z,7.2
2018-10-12T07:04:34.068Z,7.2
2018-10-12T07:05:35.498Z,7.2
2018-10-12T07:06:37.055Z,7.2
2018-10-12T07:07:38.605Z,7.2
2018-10-12T07:08:40.175Z,7.2
2018-10-12T07:09:41.555Z,7.2
2018-10-12T07:10:43.139Z,7.1
2018-10-12T07:11:44.532Z,7.2
2018-10-12T07:12:46.091Z,7.1
2018-10-12T07:13:48.231Z,7.1
2018-10-12T07:14:49.840Z,7.2
2018-10-12T07:15:51.407Z,7.2
2018-10-12T07:16:52.992Z,7.2
2018-10-12T07:17:54.541Z,7.2
2018-10-12T07:18:56.095Z,7.2
2018-10-12T07:19:57.324Z,7.2
2018-10-12T07:20:58.890Z,7.2
2018-10-12T07:22:00.455Z,7.2
2018-10-12T07:23:02.005Z,7.2
2018-10-12T07:24:03.573Z,7.2
2018-10-12T07:25:05.119Z,7.2
2018-10-12T07:26:07.063Z,7.2
2018-10-12T07:27:08.520Z,7.2
2018-10-12T07:28:10.063Z,7.2
2018-10-12T07:29:11.606Z,7.2
2018-10-12T07:30:13.000Z,7.2
2018-10-12T07:31:14.385Z,7.2
2018-10-12T07:32:15.917Z,7.2
2018-10-12T07:33:17.486Z,7.2
2018-10-12T07:34:19.043Z,7.2
2018-10-12T07:35:21.005Z,7.2
2018-10-12T07:36:22.566Z,7.2
2018-10-12T07:37:24.656Z,7.2
2018-10-12T07:38:26.048Z,7.2
2018-10-12T07:39:27.444Z,7.2
2018-10-12T07:40:29.019Z,7.2
2018-10-12T07:41:30.252Z,7.2
2018-10-12T07:42:32.457Z,7.2
2018-10-12T07:43:33.808Z,7.3
2018-10-12T07:44:35.209Z,7.3
2018-10-12T07:45:36.784Z,7.3
2018-10-12T07:46:38.340Z,7.3
2018-10-12T07:47:39.929Z,7.3
2018-10-12T07:48:41.322Z,7.4
2018-10-12T07:49:43.418Z,7.4
2018-10-12T07:50:44.809Z,7.4
2018-10-12T07:51:46.384Z,7.4
2018-10-12T07:52:47.782Z,7.5
2018-10-12T07:53:49.078Z,7.5
2018-10-12T07:54:50.639Z,7.6
2018-10-12T07:55:52.048Z,7.6
2018-10-12T07:56:53.603Z,7.7
2018-10-12T07:57:54.981Z,7.7
2018-10-12T07:58:56.353Z,7.8
2018-10-12T07:59:57.944Z,7.8
2018-10-12T08:00:59.219Z,7.8
2018-10-12T08:02:00.779Z,7.8
2018-10-12T08:03:02.341Z,7.9
2018-10-12T08:04:03.720Z,7.9
2018-10-12T08:05:05.134Z,7.9
2018-10-12T08:06:06.802Z,7.9
2018-10-12T08:07:08.355Z,7.9
2018-10-12T08:08:09.749Z,7.9
2018-10-12T08:09:11.349Z,7.9
2018-10-12T08:10:12.759Z,7.9
2018-10-12T08:11:14.332Z,7.9
2018-10-12T08:12:15.716Z,7.9
2018-10-12T08:13:17.253Z,7.9
2018-10-12T08:14:19.307Z,7.9
2018-10-12T08:15:20.712Z,7.9
2018-10-12T08:16:22.267Z,7.9
2018-10-12T08:17:23.874Z,7.9
2018-10-12T08:18:25.427Z,7.9
2018-10-12T08:19:26.982Z,7.8
2018-10-12T08:20:29.359Z,7.8
2018-10-12T08:21:30.552Z,7.8
2018-10-12T08:22:31.775Z,7.8
2018-10-12T08:23:33.146Z,7.8
2018-10-12T08:24:34.701Z,7.8
2018-10-12T08:25:36.113Z,7.8
2018-10-12T08:26:37.492Z,7.8
2018-10-12T08:27:39.058Z,7.8
2018-10-12T08:28:40.601Z,7.8
2018-10-12T08:29:42.192Z,7.8
2018-10-12T08:30:44.162Z,7.8
2018-10-12T08:31:45.732Z,7.8
2018-10-12T08:32:47.279Z,7.8
2018-10-12T08:33:48.815Z,7.8
2018-10-12T08:34:50.431Z,7.8
2018-10-12T08:35:51.993Z,7.9
2018-10-12T08:36:53.545Z,7.9
2018-10-12T08:37:55.106Z,7.9
2018-10-12T08:38:56.479Z,7.9
2018-10-12T08:39:57.710Z,7.8
2018-10-12T08:40:59.266Z,7.8
2018-10-12T08:42:01.234Z,7.8
2018-10-12T08:43:02.650Z,7.7
2018-10-12T08:44:04.039Z,7.6
2018-10-12T08:45:05.609Z,7.5
2018-10-12T08:46:07.169Z,7.4
2018-10-12T08:47:08.732Z,7.3
2018-10-12T08:48:10.300Z,7.2
2018-10-12T08:49:11.870Z,7.2
2018-10-12T08:50:13.449Z,7.2
2018-10-12T08:51:14.839Z,7.2
2018-10-12T08:52:16.412Z,7.2
2018-10-12T08:53:17.960Z,7.2
2018-10-12T08:54:19.515Z,7.2
2018-10-12T08:55:21.266Z,7.2
2018-10-12T08:56:22.681Z,7.2
2018-10-12T08:57:24.223Z,7.2
2018-10-12T08:58:25.628Z,7.2
2018-10-12T08:59:27.035Z,7.2
2018-10-12T09:00:28.592Z,7.2
2018-10-12T09:01:29.986Z,7.2
2018-10-12T09:02:31.382Z,7.2
2018-10-12T09:03:32.788Z,7.2
2018-10-12T09:04:34.350Z,7.2
2018-10-12T09:05:35.735Z,7.2
2018-10-12T09:06:37.291Z,7.2
2018-10-12T09:07:38.680Z,7.2
2018-10-12T09:08:40.245Z,7.2
2018-10-12T09:09:42.101Z,7.2
2018-10-12T09:10:43.512Z,7.2
2018-10-12T09:11:45.074Z,7.2
2018-10-12T09:12:46.463Z,7.2
2018-10-12T09:13:48.238Z,7.2
2018-10-12T09:14:49.521Z,7.2
2018-10-12T09:15:50.930Z,7.2
2018-10-12T09:16:52.488Z,7.2
2018-10-12T09:17:54.084Z,7.2
2018-10-12T09:18:55.467Z,7.2
2018-10-12T09:19:57.018Z,7.2
2018-10-12T09:20:58.588Z,7.2
2018-10-12T09:22:00.371Z,7.2
2018-10-12T09:23:01.611Z,7.2
2018-10-12T09:24:03.178Z,7.2
2018-10-12T09:25:04.580Z,7.2
2018-10-12T09:26:06.168Z,7.2
2018-10-12T09:27:08.020Z,7.2
2018-10-12T09:28:09.613Z,7.2
2018-10-12T09:29:11.157Z,7.2
2018-10-12T09:30:12.906Z,7.2
2018-10-12T09:31:14.520Z,7.2
2018-10-12T09:32:16.076Z,7.2
2018-10-12T09:33:17.636Z,7.2
2018-10-12T09:34:19.195Z,7.2
2018-10-12T09:35:20.724Z,7.2
2018-10-12T09:36:22.474Z,7.2
2018-10-12T09:37:24.105Z,7.2
2018-10-12T09:38:25.691Z,7.2
2018-10-12T09:39:27.244Z,7.2
2018-10-12T09:40:28.629Z,7.3
2018-10-12T09:41:30.205Z,7.3
2018-10-12T09:42:31.765Z,7.3
2018-10-12T09:43:33.320Z,7.3
2018-10-12T09:44:34.955Z,7.3
2018-10-12T09:45:36.527Z,7.3
2018-10-12T09:46:38.112Z,7.3
2018-10-12T09:47:39.661Z,7.3
2018-10-12T09:48:41.239Z,7.4
2018-10-12T09:49:42.793Z,7.4
2018-10-12T09:50:44.950Z,7.4
2018-10-12T09:51:46.520Z,7.4
2018-10-12T09:52:48.097Z,7.4
2018-10-12T09:53:49.677Z,7.4
2018-10-12T09:54:51.220Z,7.5
2018-10-12T09:55:53.294Z,7.5
2018-10-12T09:56:54.915Z,7.5
2018-10-12T09:57:56.492Z,7.5
2018-10-12T09:58:58.045Z,7.6
2018-10-12T09:59:59.601Z,7.6
2018-10-12T10:01:01.163Z,7.6
2018-10-12T10:02:03.258Z,7.6
2018-10-12T10:03:04.870Z,7.7
2018-10-12T10:04:06.432Z,7.7
2018-10-12T10:05:07.841Z,7.7
2018-10-12T10:06:09.268Z,7.8
2018-10-12T10:07:10.840Z,7.8
2018-10-12T10:08:12.982Z,7.8
2018-10-12T10:09:14.660Z,7.8
2018-10-12T10:10:16.206Z,7.8
2018-10-12T10:11:17.428Z,7.8
2018-10-12T10:12:18.829Z,7.8
2018-10-12T10:13:20.397Z,7.8
2018-10-12T10:14:22.120Z,7.8
2018-10-12T10:15:24.346Z,7.8
2018-10-12T10:16:25.978Z,7.8
2018-10-12T10:17:27.536Z,7.9
2018-10-12T10:18:29.096Z,7.9
2018-10-12T10:19:30.659Z,7.9
2018-10-12T10:20:32.049Z,7.9
2018-10-12T10:21:33.599Z,7.9
2018-10-12T10:22:36.035Z,7.9
2018-10-12T10:23:37.676Z,7.9
2018-10-12T10:24:39.250Z,7.9
2018-10-12T10:25:40.811Z,7.9
2018-10-12T10:26:42.379Z,7.9
2018-10-12T10:27:43.989Z,7.9
2018-10-12T10:28:45.571Z,7.9
2018-10-12T10:29:47.127Z,7.9
2018-10-12T10:30:48.540Z,7.9
2018-10-12T10:31:50.094Z,7.9
2018-10-12T10:32:51.493Z,7.9
2018-10-12T10:33:53.051Z,7.8
2018-10-12T10:34:54.630Z,7.8
2018-10-12T10:35:56.206Z,7.8
2018-10-12T10:36:57.759Z,7.7
2018-10-12T10:37:59.307Z,7.7
2018-10-12T10:39:00.778Z,7.6
2018-10-12T10:40:02.432Z,7.5
2018-10-12T10:41:03.990Z,7.4
2018-10-12T10:42:05.551Z,7.4
2018-10-12T10:43:06.938Z,7.3
2018-10-12T10:44:08.497Z,7.2
2018-10-12T10:45:10.070Z,7.2
2018-10-12T10:46:11.918Z,7.2
2018-10-12T10:47:13.475Z,7.2
2018-10-12T10:48:15.036Z,7.2
2018-10-12T10:49:16.419Z,7.2
2018-10-12T10:50:17.940Z,7.2
2018-10-12T10:51:19.620Z,7.2
2018-10-12T10:52:21.020Z,7.2
2018-10-12T10:53:22.425Z,7.2
2018-10-12T10:54:23.849Z,7.2
2018-10-12T10:55:25.443Z,7.2
2018-10-12T10:56:27.004Z,7.2
2018-10-12T10:57:28.565Z,7.2
2018-10-12T10:58:30.111Z,7.2
2018-10-12T10:59:31.480Z,7.2
2018-10-12T11:00:33.042Z,7.2
2018-10-12T11:01:34.619Z,7.2
2018-10-12T11:02:36.028Z,7.2
2018-10-12T11:03:37.639Z,7.2
2018-10-12T11:04:39.208Z,7.2
2018-10-12T11:05:40.774Z,7.2
2018-10-12T11:06:42.352Z,7.2
2018-10-12T11:07:43.768Z,7.2
2018-10-12T11:08:45.159Z,7.2
2018-10-12T11:09:46.533Z,7.2
2018-10-12T11:10:48.083Z,7.2
2018-10-12T11:11:49.477Z,7.2
2018-10-12T11:12:52.385Z,7.2
2018-10-12T11:13:54.090Z,7.3
2018-10-12T11:14:55.639Z,7.3
2018-10-12T11:15:57.197Z,7.3
2018-10-12T11:16:58.423Z,7.3
2018-10-12T11:17:59.878Z,7.3
2018-10-12T11:19:01.442Z,7.3
2018-10-12T11:20:02.989Z,7.3
2018-10-12T11:21:04.414Z,7.3
2018-10-12T11:22:05.958Z,7.3
2018-10-12T11:23:07.354Z,7.3
2018-10-12T11:24:08.915Z,7.3
2018-10-12T11:25:10.464Z,7.3
2018-10-12T11:26:12.257Z,7.3
2018-10-12T11:27:13.443Z,7.3
2018-10-12T11:28:15.034Z,7.3
2018-10-12T11:29:16.588Z,7.4
2018-10-12T11:30:17.981Z,7.4
2018-10-12T11:31:19.549Z,7.4
2018-10-12T11:32:20.942Z,7.4
2018-10-12T11:33:22.507Z,7.5
2018-10-12T11:34:24.078Z,7.5
2018-10-12T11:35:25.731Z,7.5
2018-10-12T11:36:27.283Z,7.6
2018-10-12T11:37:28.870Z,7.6
2018-10-12T11:38:31.164Z,7.6
2018-10-12T11:39:32.756Z,7.7
2018-10-12T11:40:34.325Z,7.7
2018-10-12T11:41:35.904Z,7.7
2018-10-12T11:42:37.122Z,7.7
2018-10-12T11:43:38.692Z,7.8
2018-10-12T11:44:40.109Z,7.8
2018-10-12T11:45:41.680Z,7.8
2018-10-12T11:46:43.268Z,7.8
2018-10-12T11:47:44.681Z,7.8
2018-10-12T11:48:46.269Z,7.8
2018-10-12T11:49:47.838Z,7.8
2018-10-12T11:50:49.424Z,7.8
2018-10-12T11:51:50.988Z,7.8
2018-10-12T11:52:52.599Z,7.8
2018-10-12T11:53:54.164Z,7.8
2018-10-12T11:54:55.728Z,7.8
2018-10-12T11:55:57.288Z,7.8
2018-10-12T11:56:58.864Z,7.8
2018-10-12T11:58:00.434Z,7.8
2018-10-12T11:59:01.857Z,7.8
2018-10-12T12:00:03.432Z,7.8
2018-10-12T12:01:05.889Z,7.8
2018-10-12T12:02:07.813Z,7.8
2018-10-12T12:03:09.374Z,7.8
2018-10-12T12:04:10.922Z,7.8
2018-10-12T12:05:12.468Z,7.8
2018-10-12T12:06:14.038Z,7.8
2018-10-12T12:07:15.812Z,7.8
2018-10-12T12:08:17.271Z,7.8
2018-10-12T12:09:18.819Z,7.8
2018-10-12T12:10:20.433Z,7.8
2018-10-12T12:11:21.814Z,7.8
2018-10-12T12:12:23.221Z,7.8
2018-10-12T12:13:25.248Z,7.8
2018-10-12T12:14:26.829Z,7.8
2018-10-12T12:15:28.217Z,7.8
2018-10-12T12:16:29.935Z,7.8
2018-10-12T12:17:31.590Z,7.8
2018-10-12T12:18:33.169Z,7.9
2018-10-12T12:19:34.731Z,7.9
2018-10-12T12:20:36.295Z,7.9
2018-10-12T12:21:37.932Z,7.9
2018-10-12T12:22:39.496Z,7.9
2018-10-12T12:23:41.082Z,7.9
2018-10-12T12:24:42.627Z,7.9
2018-10-12T12:25:44.181Z,7.8
2018-10-12T12:26:45.571Z,7.2
2018-10-12T12:27:47.139Z,7.2
2018-10-12T12:28:48.218Z,7.2
2018-10-12T12:29:49.609Z,7.2
2018-10-12T12:30:51.150Z,7.2
2018-10-12T12:31:52.699Z,7.2
2018-10-12T12:32:54.100Z,7.2
2018-10-12T12:33:55.660Z,7.2
2018-10-12T12:34:58.804Z,7.2
2018-10-12T12:36:02.077Z,7.2
2018-10-12T12:37:03.783Z,7.2
2018-10-12T12:38:05.367Z,7.2
2018-10-12T12:39:06.967Z,7.2
2018-10-12T12:40:08.540Z,7.2
2018-10-12T12:41:10.129Z,7.2
2018-10-12T12:42:11.535Z,7.2
2018-10-12T12:43:12.921Z,7.2
2018-10-12T12:44:14.309Z,7.2
2018-10-12T12:45:16.073Z,7.2
2018-10-12T12:46:17.634Z,7.2
2018-10-12T12:47:19.765Z,7.2
2018-10-12T12:48:24.460Z,7.2
2018-10-12T12:49:26.894Z,7.2
2018-10-12T12:50:28.624Z,7.2
2018-10-12T12:51:30.018Z,7.2
2018-10-12T12:52:31.421Z,7.2
2018-10-12T12:53:32.825Z,7.2
2018-10-12T12:54:34.407Z,7.2
2018-10-12T12:55:35.813Z,7.2
2018-10-12T12:56:37.401Z,7.2
2018-10-12T12:57:38.947Z,7.2
2018-10-12T12:58:40.503Z,7.2
2018-10-12T12:59:42.229Z,7.2
2018-10-12T13:00:44.242Z,7.2
2018-10-12T13:01:45.831Z,7.2
2018-10-12T13:02:47.227Z,7.3
2018-10-12T13:03:48.628Z,7.3
2018-10-12T13:04:50.217Z,7.3
2018-10-12T13:05:51.785Z,7.3
2018-10-12T13:06:53.024Z,7.3
2018-10-12T13:07:54.577Z,7.3
2018-10-12T13:08:56.135Z,7.4
2018-10-12T13:09:57.700Z,7.4
2018-10-12T13:10:59.245Z,7.4
2018-10-12T13:12:00.625Z,7.4
2018-10-12T13:13:02.179Z,7.4
2018-10-12T13:14:03.798Z,7.5
2018-10-12T13:15:05.400Z,7.5
2018-10-12T13:16:06.823Z,7.5
2018-10-12T13:17:08.373Z,7.5
2018-10-12T13:18:09.957Z,7.5
2018-10-12T13:19:11.570Z,7.6
2018-10-12T13:20:13.148Z,7.6
2018-10-12T13:21:14.714Z,7.6
2018-10-12T13:22:16.277Z,7.6
2018-10-12T13:23:17.854Z,7.7
2018-10-12T13:24:19.254Z,7.7
2018-10-12T13:25:20.804Z,7.7
2018-10-12T13:26:24.392Z,7.7
2018-10-12T13:27:26.112Z,7.8
2018-10-12T13:28:27.708Z,7.8
2018-10-12T13:29:29.169Z,7.8
2018-10-12T13:30:30.734Z,7.8
2018-10-12T13:31:32.337Z,7.8
2018-10-12T13:32:33.802Z,7.8
2018-10-12T13:33:35.348Z,7.8
2018-10-12T13:34:36.992Z,7.8
2018-10-12T13:35:38.588Z,7.8
2018-10-12T13:36:40.170Z,7.8
2018-10-12T13:37:42.273Z,7.8
2018-10-12T13:38:43.940Z,7.8
2018-10-12T13:39:45.955Z,7.8
2018-10-12T13:40:47.436Z,7.8
2018-10-12T13:41:49.050Z,7.9
2018-10-12T13:42:50.636Z,7.9
2018-10-12T13:43:52.191Z,7.9
2018-10-12T13:44:53.618Z,7.9
2018-10-12T13:45:54.997Z,7.9
2018-10-12T13:46:56.583Z,7.9
2018-10-12T13:47:58.131Z,7.9
2018-10-12T13:48:59.706Z,7.9
2018-10-12T13:50:01.280Z,7.8
2018-10-12T13:51:02.822Z,7.8
2018-10-12T13:52:04.390Z,7.8
2018-10-12T13:53:05.817Z,7.8
2018-10-12T13:54:07.350Z,7.7
2018-10-12T13:55:08.756Z,7.7
2018-10-12T13:56:10.380Z,7.6
2018-10-12T13:57:11.964Z,7.5
2018-10-12T13:58:13.544Z,7.5
2018-10-12T13:59:15.114Z,7.4
2018-10-12T14:00:17.103Z,7.3
2018-10-12T14:01:18.558Z,7.2
2018-10-12T14:02:20.122Z,7.2
2018-10-12T14:03:21.529Z,7.2
2018-10-12T14:04:23.099Z,7.2
2018-10-12T14:05:24.889Z,7.2
2018-10-12T14:06:26.469Z,7.2
2018-10-12T14:07:28.036Z,7.2